createdAt,value
2022-11-27T00:01:20.268Z,14.13
2022-11-27T00:03:48.968Z,12.23
2022-11-27T00:06:20.029Z,12.23
2022-11-27T00:08:48.710Z,13.30
2022-11-27T00:11:18.437Z,14.80
2022-11-27T00:13:47.619Z,12.75
2022-11-27T00:16:16.923Z,12.20
2022-11-27T00:18:45.598Z,13.05
2022-11-27T00:21:14.975Z,11.98
2022-11-27T00:23:45.239Z,12.07
2022-11-27T00:26:13.922Z,11.73
2022-11-27T00:28:42.623Z,11.43
2022-11-27T00:31:15.284Z,11.75
2022-11-27T00:33:44.062Z,12.63
2022-11-27T00:36:12.942Z,12.13
2022-11-27T00:38:41.516Z,11.48
2022-11-27T00:41:12.039Z,11.52
2022-11-27T00:43:44.399Z,11.82
2022-11-27T00:46:13.954Z,11.10
2022-11-27T00:48:42.875Z,10.20
2022-11-27T00:51:12.498Z,10.73
2022-11-27T00:53:41.437Z,10.40
2022-11-27T00:56:12.062Z,10.20
2022-11-27T00:58:40.635Z,9.65
2022-11-27T01:01:09.771Z,10.93
2022-11-27T01:03:38.361Z,9.85
2022-11-27T01:06:08.069Z,8.52
2022-11-27T01:08:36.954Z,10.40
2022-11-27T01:11:05.410Z,10.85
2022-11-27T01:13:36.239Z,10.18
2022-11-27T01:16:06.029Z,10.38
2022-11-27T01:18:34.827Z,10.25
2022-11-27T01:21:03.336Z,9.65
2022-11-27T01:23:32.093Z,9.93
2022-11-27T01:26:01.930Z,9.57
2022-11-27T01:28:30.972Z,10.13
2022-11-27T01:31:01.077Z,11.15
2022-11-27T01:33:29.642Z,10.00
2022-11-27T01:35:58.586Z,10.20
2022-11-27T01:38:27.287Z,9.98
2022-11-27T01:40:58.963Z,10.63
2022-11-27T01:43:42.152Z,10.43
2022-11-27T01:46:25.387Z,9.43
2022-11-27T01:48:54.370Z,10.07
2022-11-27T01:51:24.403Z,11.10
2022-11-27T01:53:54.645Z,10.63
2022-11-27T01:56:23.889Z,13.18
2022-11-27T01:58:53.163Z,13.45
2022-11-27T02:01:24.378Z,10.82
2022-11-27T02:03:52.942Z,10.45
2022-11-27T02:06:25.975Z,9.00
2022-11-27T02:08:54.467Z,6.47
2022-11-27T02:11:27.748Z,9.23
2022-11-27T02:14:03.759Z,10.07
2022-11-27T02:16:36.002Z,9.45
2022-11-27T02:19:09.490Z,9.00
2022-11-27T02:21:39.995Z,10.23
2022-11-27T02:24:21.565Z,9.30
2022-11-27T02:27:04.274Z,8.95
2022-11-27T02:29:35.618Z,10.25
2022-11-27T02:32:07.220Z,10.25
2022-11-27T02:34:36.646Z,10.00
2022-11-27T02:37:11.144Z,10.07
2022-11-27T02:39:43.635Z,10.55
2022-11-27T02:42:14.205Z,9.07
2022-11-27T02:44:47.350Z,9.65
2022-11-27T02:47:17.073Z,10.10
2022-11-27T02:49:47.280Z,9.15
2022-11-27T02:52:17.502Z,10.13
2022-11-27T02:54:46.886Z,8.68
2022-11-27T02:57:16.004Z,8.70
2022-11-27T02:59:47.087Z,9.38
2022-11-27T03:02:17.832Z,9.35
2022-11-27T03:04:48.489Z,9.35
2022-11-27T03:07:20.100Z,8.88
2022-11-27T03:09:50.138Z,9.88
2022-11-27T03:12:19.828Z,8.77
2022-11-27T03:14:50.189Z,9.50
2022-11-27T03:17:22.918Z,9.55
2022-11-27T03:19:54.391Z,9.05
2022-11-27T03:22:23.001Z,9.30
2022-11-27T03:24:51.454Z,9.02
2022-11-27T03:27:21.303Z,9.50
2022-11-27T03:29:53.826Z,9.52
2022-11-27T03:32:22.279Z,9.50
2022-11-27T03:34:51.072Z,9.10
2022-11-27T03:37:19.948Z,9.70
2022-11-27T03:39:48.551Z,9.77
2022-11-27T03:42:20.828Z,9.35
2022-11-27T03:44:54.397Z,9.15
2022-11-27T03:47:28.464Z,9.18
2022-11-27T03:50:02.823Z,16.40
2022-11-27T03:52:36.596Z,10.65
2022-11-27T03:57:36.340Z,11.57
2022-11-27T04:00:11.338Z,10.85
2022-11-27T04:02:43.602Z,11.32
2022-11-27T04:05:12.167Z,9.80
2022-11-27T04:07:40.974Z,9.40
2022-11-27T04:10:10.354Z,9.40
2022-11-27T04:12:38.733Z,8.82
2022-11-27T04:15:09.279Z,10.77
2022-11-27T04:17:37.659Z,11.75
2022-11-27T04:20:06.750Z,9.82
2022-11-27T04:22:35.161Z,9.05
2022-11-27T04:25:04.147Z,8.40
2022-11-27T04:27:32.593Z,9.23
2022-11-27T04:30:01.208Z,11.75
2022-11-27T04:32:30.929Z,9.45
2022-11-27T04:34:59.469Z,12.30
2022-11-27T04:37:27.902Z,13.82
2022-11-27T04:39:56.380Z,13.57
2022-11-27T04:42:24.788Z,8.20
2022-11-27T04:44:53.306Z,20.83
2022-11-27T04:47:21.811Z,11.73
2022-11-27T04:49:52.679Z,11.07
2022-11-27T04:52:21.164Z,8.93
2022-11-27T04:54:49.502Z,8.80
2022-11-27T04:57:17.912Z,8.57
2022-11-27T04:59:46.327Z,8.45
2022-11-27T05:02:14.785Z,8.38
2022-11-27T05:04:43.393Z,8.85
2022-11-27T05:07:13.323Z,10.60
2022-11-27T05:09:42.011Z,7.97
2022-11-27T05:12:10.599Z,8.07
2022-11-27T05:14:39.251Z,9.02
2022-11-27T05:17:08.041Z,7.75
2022-11-27T05:19:36.514Z,8.40
2022-11-27T05:22:05.534Z,9.02
2022-11-27T05:24:35.505Z,10.90
2022-11-27T05:27:04.012Z,8.85
2022-11-27T05:29:32.644Z,8.90
2022-11-27T05:32:01.329Z,9.95
2022-11-27T05:34:29.704Z,11.55
2022-11-27T05:36:58.062Z,20.05
2022-11-27T05:39:26.739Z,25.23
2022-11-27T05:41:56.512Z,22.88
2022-11-27T05:44:26.217Z,19.65
2022-11-27T05:46:54.649Z,13.82
2022-11-27T05:49:23.220Z,9.45
2022-11-27T05:51:52.085Z,8.52
2022-11-27T05:54:20.692Z,8.13
2022-11-27T05:56:49.343Z,7.65
2022-11-27T05:59:19.336Z,7.65
2022-11-27T06:01:49.632Z,8.75
2022-11-27T06:04:18.345Z,9.93
2022-11-27T06:06:47.154Z,10.00
2022-11-27T06:09:15.916Z,8.05
2022-11-27T06:11:44.555Z,10.32
2022-11-27T06:14:12.937Z,10.77
2022-11-27T06:16:42.853Z,10.02
2022-11-27T06:19:11.355Z,8.27
2022-11-27T06:21:39.816Z,8.30
2022-11-27T06:24:08.660Z,8.75
2022-11-27T06:26:37.191Z,8.05
2022-11-27T06:29:05.819Z,8.13
2022-11-27T06:31:35.348Z,8.48
2022-11-27T06:34:05.775Z,8.43
2022-11-27T06:36:35.389Z,8.02
2022-11-27T06:39:04.237Z,7.88
2022-11-27T06:41:32.936Z,8.13
2022-11-27T06:44:02.203Z,8.55
2022-11-27T06:46:31.406Z,8.68
2022-11-27T06:49:00.320Z,7.53
2022-11-27T06:51:31.481Z,7.63
2022-11-27T06:54:01.057Z,7.90
2022-11-27T06:56:30.906Z,8.32
2022-11-27T06:59:00.119Z,11.13
2022-11-27T07:01:29.356Z,9.50
2022-11-27T07:03:58.257Z,8.90
2022-11-27T07:06:27.709Z,10.05
2022-11-27T07:08:57.822Z,8.80
2022-11-27T07:11:27.887Z,8.23
2022-11-27T07:13:57.276Z,7.50
2022-11-27T07:16:26.244Z,7.18
2022-11-27T07:18:55.511Z,7.88
2022-11-27T07:21:24.467Z,7.80
2022-11-27T07:23:53.157Z,8.00
2022-11-27T07:26:23.731Z,7.60
2022-11-27T07:28:52.507Z,9.50
2022-11-27T07:31:21.973Z,8.48
2022-11-27T07:33:52.489Z,7.32
2022-11-27T07:36:22.000Z,8.15
2022-11-27T07:38:50.678Z,8.23
2022-11-27T07:41:19.165Z,29.30
2022-11-27T07:43:49.313Z,35.45
2022-11-27T07:46:19.382Z,11.68
2022-11-27T07:48:47.827Z,8.38
2022-11-27T07:51:18.315Z,8.20
2022-11-27T07:53:46.839Z,8.90
2022-11-27T07:56:16.310Z,9.80
2022-11-27T07:58:44.871Z,8.40
2022-11-27T08:01:16.823Z,8.52
2022-11-27T08:03:45.623Z,8.43
2022-11-27T08:06:18.038Z,10.38
2022-11-27T08:08:46.558Z,13.18
2022-11-27T08:11:22.094Z,8.02
2022-11-27T08:13:51.553Z,8.75
2022-11-27T08:16:21.571Z,8.43
2022-11-27T08:18:50.095Z,8.65
2022-11-27T08:21:18.775Z,8.25
2022-11-27T08:23:47.369Z,9.57
2022-11-27T08:26:16.245Z,9.35
2022-11-27T08:28:45.226Z,9.98
2022-11-27T08:31:15.062Z,8.57
2022-11-27T08:33:44.930Z,8.43
2022-11-27T08:36:17.808Z,20.30
2022-11-27T08:38:47.008Z,16.75
2022-11-27T08:41:15.787Z,9.40
2022-11-27T08:43:44.278Z,10.55
2022-11-27T08:46:13.080Z,9.60
2022-11-27T08:48:42.146Z,8.02
2022-11-27T08:51:13.151Z,8.63
2022-11-27T08:53:41.903Z,10.45
2022-11-27T08:56:15.787Z,10.90
2022-11-27T08:58:44.312Z,11.98
2022-11-27T09:01:14.012Z,10.15
2022-11-27T09:03:42.715Z,12.20
2022-11-27T09:06:13.537Z,12.60
2022-11-27T09:08:43.019Z,13.30
2022-11-27T09:11:12.112Z,14.45
2022-11-27T09:13:40.789Z,12.80
2022-11-27T09:16:10.384Z,13.70
2022-11-27T09:18:40.010Z,14.43
2022-11-27T09:21:09.378Z,14.45
2022-11-27T09:23:39.661Z,16.42
2022-11-27T09:26:09.222Z,16.33
2022-11-27T09:28:38.215Z,20.60
2022-11-27T09:31:07.636Z,19.30
2022-11-27T09:33:36.724Z,24.17
2022-11-27T09:36:06.861Z,20.50
2022-11-27T09:38:35.537Z,19.23
2022-11-27T09:41:09.428Z,20.35
2022-11-27T09:43:44.009Z,32.55
2022-11-27T09:46:17.646Z,19.52
2022-11-27T09:48:46.945Z,20.92
2022-11-27T09:51:20.123Z,19.20
2022-11-27T09:53:50.546Z,16.73
2022-11-27T09:56:20.878Z,18.60
2022-11-27T09:58:52.211Z,21.77
2022-11-27T10:01:26.179Z,24.73
2022-11-27T10:03:59.297Z,20.52
2022-11-27T10:06:30.454Z,18.35
2022-11-27T10:09:07.767Z,17.10
2022-11-27T10:11:41.511Z,19.92
2022-11-27T10:14:19.033Z,18.95
2022-11-27T10:16:50.637Z,18.30
2022-11-27T10:19:24.661Z,17.70
2022-11-27T10:21:55.797Z,16.42
2022-11-27T10:24:27.903Z,15.98
2022-11-27T10:27:00.239Z,16.33
2022-11-27T10:29:35.469Z,14.25
2022-11-27T10:32:06.834Z,13.20
2022-11-27T10:34:39.589Z,12.73
2022-11-27T10:37:10.103Z,14.35
2022-11-27T10:39:41.356Z,16.00
2022-11-27T10:42:13.843Z,17.02
2022-11-27T10:44:44.107Z,14.80
2022-11-27T10:47:16.011Z,14.82
2022-11-27T10:49:45.147Z,14.18
2022-11-27T10:52:16.868Z,13.95
2022-11-27T10:54:47.110Z,13.35
2022-11-27T10:57:39.822Z,13.07
2022-11-27T11:00:13.421Z,12.43
2022-11-27T11:02:41.911Z,12.68
2022-11-27T11:05:37.727Z,12.43
2022-11-27T11:08:18.847Z,11.80
2022-11-27T11:10:52.380Z,12.75
2022-11-27T11:13:23.475Z,12.88
2022-11-27T11:15:59.209Z,12.65
2022-11-27T11:18:29.782Z,12.25
2022-11-27T11:20:59.200Z,11.38
2022-11-27T11:23:32.260Z,11.80
2022-11-27T11:26:03.829Z,11.35
2022-11-27T11:28:39.243Z,11.23
2022-11-27T11:31:10.834Z,10.70
2022-11-27T11:33:41.773Z,12.27
2022-11-27T11:36:11.686Z,13.65
2022-11-27T11:38:40.151Z,12.27
2022-11-27T11:41:09.661Z,11.15
2022-11-27T11:43:39.845Z,16.48
2022-11-27T11:46:09.759Z,13.07
2022-11-27T11:48:41.273Z,11.10
2022-11-27T11:51:13.476Z,11.60
2022-11-27T11:53:45.640Z,11.80
2022-11-27T11:56:21.536Z,11.52
2022-11-27T11:59:03.512Z,10.98
2022-11-27T12:01:47.357Z,9.50
2022-11-27T12:04:33.573Z,8.50
2022-11-27T12:07:07.474Z,7.35
2022-11-27T12:12:17.240Z,8.07
2022-11-27T12:14:52.178Z,7.10
2022-11-27T12:17:31.239Z,6.80
2022-11-27T12:20:30.897Z,6.95
2022-11-27T12:23:20.986Z,7.15
2022-11-27T12:25:56.085Z,7.18
2022-11-27T12:28:34.214Z,6.07
2022-11-27T12:31:08.495Z,6.57
2022-11-27T12:33:48.427Z,7.10
2022-11-27T12:36:25.286Z,7.40
2022-11-27T12:39:02.059Z,6.57
2022-11-27T12:41:39.805Z,6.53
2022-11-27T12:44:14.749Z,6.13
2022-11-27T12:46:53.816Z,7.18
2022-11-27T12:52:11.546Z,6.55
2022-11-27T12:54:42.721Z,6.95
2022-11-27T12:57:15.381Z,6.55
2022-11-27T12:59:45.177Z,7.40
2022-11-27T13:02:24.934Z,6.65
2022-11-27T13:04:55.858Z,7.53
2022-11-27T13:07:26.554Z,7.45
2022-11-27T13:09:59.752Z,7.78
2022-11-27T13:12:31.661Z,7.68
2022-11-27T13:15:02.375Z,6.90
2022-11-27T13:17:39.239Z,8.00
2022-11-27T13:20:09.199Z,7.25
2022-11-27T13:22:41.267Z,7.60
2022-11-27T13:25:14.689Z,7.50
2022-11-27T13:27:45.784Z,7.78
2022-11-27T13:30:20.756Z,7.10
2022-11-27T13:32:52.702Z,7.68
2022-11-27T13:35:24.720Z,7.57
2022-11-27T13:38:01.254Z,7.35
2022-11-27T13:40:32.232Z,8.38
2022-11-27T13:43:05.446Z,7.97
2022-11-27T13:45:35.572Z,7.95
2022-11-27T13:48:08.540Z,7.68
2022-11-27T13:50:47.601Z,7.93
2022-11-27T13:53:16.370Z,8.07
2022-11-27T13:55:54.295Z,7.93
2022-11-27T13:58:32.529Z,7.63
2022-11-27T14:01:01.936Z,7.85
2022-11-27T14:03:32.534Z,8.55
2022-11-27T14:06:01.467Z,7.38
2022-11-27T14:08:34.732Z,7.85
2022-11-27T14:11:05.948Z,8.27
2022-11-27T14:13:36.894Z,7.50
2022-11-27T14:16:05.671Z,7.80
2022-11-27T14:18:36.669Z,8.50
2022-11-27T14:21:06.318Z,7.45
2022-11-27T14:23:36.199Z,8.65
2022-11-27T14:26:14.698Z,8.88
2022-11-27T14:28:46.989Z,8.57
2022-11-27T14:32:24.031Z,8.70
2022-11-27T14:34:34.383Z,9.75
2022-11-27T14:37:07.512Z,8.57
2022-11-27T14:39:40.140Z,8.88
2022-11-27T14:42:09.814Z,8.20
2022-11-27T14:44:38.431Z,9.68
2022-11-27T14:47:11.958Z,8.82
2022-11-27T14:49:42.637Z,8.82
2022-11-27T14:52:16.843Z,8.98
2022-11-27T14:54:46.240Z,9.65
2022-11-27T14:57:21.993Z,9.05
2022-11-27T14:59:50.407Z,9.45
2022-11-27T15:02:28.781Z,8.93
2022-11-27T15:05:06.427Z,8.82
2022-11-27T15:07:45.397Z,9.68
2022-11-27T15:10:24.298Z,8.73
2022-11-27T15:12:55.936Z,9.38
2022-11-27T15:15:26.447Z,8.65
2022-11-27T15:17:56.409Z,9.68
2022-11-27T15:20:29.711Z,8.63
2022-11-27T15:23:02.063Z,9.77
2022-11-27T15:25:37.400Z,8.40
2022-11-27T15:28:21.432Z,8.80
2022-11-27T15:30:53.033Z,9.13
2022-11-27T15:33:27.510Z,9.50
2022-11-27T15:36:08.607Z,9.05
2022-11-27T15:38:41.301Z,9.00
2022-11-27T15:41:20.694Z,9.15
2022-11-27T15:44:00.560Z,9.40
2022-11-27T15:46:31.515Z,8.98
2022-11-27T15:49:03.216Z,8.80
2022-11-27T15:51:33.057Z,8.90
2022-11-27T15:54:01.717Z,8.50
2022-11-27T15:56:32.229Z,9.30
2022-11-27T15:59:01.408Z,9.68
2022-11-27T16:01:29.909Z,9.23
2022-11-27T16:04:00.166Z,9.10
2022-11-27T16:06:28.634Z,9.00
2022-11-27T16:08:58.741Z,9.27
2022-11-27T16:11:28.069Z,8.52
2022-11-27T16:13:56.911Z,9.50
2022-11-27T16:16:26.088Z,8.98
2022-11-27T16:19:07.925Z,9.80
2022-11-27T16:21:39.205Z,9.70
2022-11-27T16:24:26.443Z,10.98
2022-11-27T16:26:55.004Z,9.70
2022-11-27T16:29:23.598Z,10.95
2022-11-27T16:31:52.481Z,10.57
2022-11-27T16:34:21.244Z,10.07
2022-11-27T16:36:50.973Z,10.05
2022-11-27T16:39:22.226Z,9.40
2022-11-27T16:41:50.651Z,11.23
2022-11-27T16:44:24.208Z,11.40
2022-11-27T16:47:03.720Z,10.77
2022-11-27T16:49:36.851Z,11.00
2022-11-27T16:52:08.258Z,11.73
2022-11-27T16:54:55.024Z,11.75
2022-11-27T16:57:27.776Z,12.77
2022-11-27T16:59:56.381Z,11.63
2022-11-27T17:02:25.042Z,10.45
2022-11-27T17:04:56.902Z,10.73
2022-11-27T17:07:25.346Z,9.95
2022-11-27T17:09:55.347Z,12.00
2022-11-27T17:12:25.044Z,10.07
2022-11-27T17:14:53.416Z,9.40
2022-11-27T17:17:23.764Z,9.23
2022-11-27T17:20:04.797Z,9.90
2022-11-27T17:22:38.011Z,9.93
2022-11-27T17:25:11.117Z,11.43
2022-11-27T17:27:52.511Z,10.80
2022-11-27T17:30:21.232Z,9.52
2022-11-27T17:32:52.174Z,10.77
2022-11-27T17:35:20.963Z,10.25
2022-11-27T17:37:49.418Z,8.90
2022-11-27T17:40:19.354Z,11.10
2022-11-27T17:42:48.346Z,10.18
2022-11-27T17:45:18.015Z,10.27
2022-11-27T17:47:49.620Z,9.90
2022-11-27T17:50:18.909Z,9.60
2022-11-27T17:52:47.418Z,10.70
2022-11-27T17:55:20.690Z,10.05
2022-11-27T17:57:52.884Z,10.43
2022-11-27T18:00:21.613Z,9.80
2022-11-27T18:02:54.555Z,9.90
2022-11-27T18:05:27.636Z,10.50
2022-11-27T18:07:57.287Z,10.15
2022-11-27T18:10:25.794Z,10.07
2022-11-27T18:12:58.715Z,10.30
2022-11-27T18:15:28.379Z,11.20
2022-11-27T18:17:57.201Z,10.30
2022-11-27T18:20:27.865Z,10.27
2022-11-27T18:22:56.439Z,9.93
2022-11-27T18:25:26.474Z,10.48
2022-11-27T18:27:56.701Z,10.13
2022-11-27T18:30:26.863Z,10.63
2022-11-27T18:32:55.551Z,9.85
2022-11-27T18:35:25.744Z,11.23
2022-11-27T18:37:57.313Z,11.40
2022-11-27T18:40:26.013Z,11.52
2022-11-27T18:42:54.534Z,11.10
2022-11-27T18:45:33.003Z,12.60
2022-11-27T18:48:04.264Z,11.02
2022-11-27T18:50:32.674Z,9.98
2022-11-27T18:53:01.290Z,10.15
2022-11-27T18:55:29.968Z,11.05
2022-11-27T18:57:58.372Z,12.57
2022-11-27T19:00:27.916Z,11.80
2022-11-27T19:02:56.477Z,10.68
2022-11-27T19:05:26.650Z,12.32
2022-11-27T19:07:55.194Z,10.85
2022-11-27T19:10:23.866Z,10.95
2022-11-27T19:12:54.602Z,10.63
2022-11-27T19:15:23.146Z,10.85
2022-11-27T19:17:51.693Z,10.90
2022-11-27T19:20:20.204Z,11.95
2022-11-27T19:22:50.088Z,12.43
2022-11-27T19:25:18.908Z,13.20
2022-11-27T19:27:47.481Z,11.65
2022-11-27T19:30:16.232Z,11.10
2022-11-27T19:32:48.255Z,13.10
2022-11-27T19:35:24.473Z,13.38
2022-11-27T19:37:56.737Z,12.10
2022-11-27T19:40:28.906Z,11.85
2022-11-27T19:43:01.074Z,10.98
2022-11-27T19:45:30.338Z,11.60
2022-11-27T19:48:01.310Z,11.50
2022-11-27T19:50:29.946Z,11.18
2022-11-27T19:53:00.207Z,11.20
2022-11-27T19:55:31.441Z,11.10
2022-11-27T19:58:08.265Z,10.30
2022-11-27T20:00:36.923Z,10.93
2022-11-27T20:03:08.728Z,11.05
2022-11-27T20:05:40.184Z,11.43
2022-11-27T20:08:10.933Z,10.60
2022-11-27T20:10:39.659Z,10.60
2022-11-27T20:13:10.060Z,11.48
2022-11-27T20:15:39.432Z,11.07
2022-11-27T20:18:08.010Z,11.45
2022-11-27T20:20:38.373Z,11.10
2022-11-27T20:23:10.659Z,12.05
2022-11-27T20:25:42.482Z,11.65
2022-11-27T20:28:14.385Z,11.00
2022-11-27T20:30:45.949Z,11.40
2022-11-27T20:33:17.802Z,11.57
2022-11-27T20:35:48.522Z,11.65
2022-11-27T20:38:17.117Z,10.88
2022-11-27T20:40:47.138Z,12.00
2022-11-27T20:43:18.599Z,12.15
2022-11-27T20:45:47.160Z,11.40
2022-11-27T20:48:21.065Z,11.52
2022-11-27T20:53:20.840Z,10.85
2022-11-27T20:55:50.632Z,11.63
2022-11-27T20:58:19.072Z,12.43
2022-11-27T21:00:48.301Z,11.60
2022-11-27T21:03:16.903Z,11.70
2022-11-27T21:05:48.404Z,12.18
2022-11-27T21:08:16.979Z,11.50
2022-11-27T21:10:45.981Z,11.63
2022-11-27T21:13:16.623Z,11.20
2022-11-27T21:15:49.015Z,11.73
2022-11-27T21:18:17.689Z,12.15
2022-11-27T21:20:46.316Z,12.32
2022-11-27T21:23:16.038Z,11.77
2022-11-27T21:25:44.669Z,12.10
2022-11-27T21:28:13.170Z,12.10
2022-11-27T21:30:44.246Z,12.65
2022-11-27T21:33:12.659Z,12.77
2022-11-27T21:35:42.958Z,11.68
2022-11-27T21:38:11.445Z,11.57
2022-11-27T21:40:41.002Z,11.98
2022-11-27T21:43:09.507Z,11.98
2022-11-27T21:45:40.531Z,13.02
2022-11-27T21:48:14.317Z,12.75
2022-11-27T21:50:43.358Z,12.10
2022-11-27T21:53:11.780Z,12.55
2022-11-27T21:55:43.945Z,11.95
2022-11-27T21:58:12.658Z,13.30
2022-11-27T22:00:44.293Z,12.38
2022-11-27T22:03:14.357Z,13.15
2022-11-27T22:05:42.957Z,12.68
2022-11-27T22:08:11.646Z,12.32
2022-11-27T22:10:41.470Z,12.60
2022-11-27T22:13:12.752Z,12.68
2022-11-27T22:15:41.169Z,11.93
2022-11-27T22:18:09.682Z,11.60
2022-11-27T22:20:42.271Z,11.88
2022-11-27T22:23:11.171Z,12.50
2022-11-27T22:25:42.174Z,12.05
2022-11-27T22:28:10.922Z,12.10
2022-11-27T22:30:39.537Z,11.20
2022-11-27T22:33:08.036Z,11.40
2022-11-27T22:35:36.519Z,11.60
2022-11-27T22:38:06.721Z,11.38
2022-11-27T22:40:35.360Z,11.60
2022-11-27T22:43:03.832Z,11.93
2022-11-27T22:45:32.563Z,12.07
2022-11-27T22:48:01.173Z,10.77
2022-11-27T22:50:29.675Z,10.57
2022-11-27T22:52:58.481Z,10.82
2022-11-27T22:55:28.625Z,10.30
2022-11-27T22:57:57.378Z,10.85
2022-11-27T23:00:26.090Z,10.93
2022-11-27T23:02:54.634Z,11.55
2022-11-27T23:05:23.201Z,11.02
2022-11-27T23:07:51.823Z,10.30
2022-11-27T23:10:20.767Z,10.95
2022-11-27T23:12:50.573Z,10.63
2022-11-27T23:15:19.321Z,11.30
2022-11-27T23:17:47.842Z,10.20
2022-11-27T23:20:16.313Z,11.63
2022-11-27T23:22:44.880Z,11.38
2022-11-27T23:25:13.534Z,10.57
2022-11-27T23:27:42.295Z,10.88
2022-11-27T23:30:12.730Z,10.70
2022-11-27T23:32:41.333Z,10.10
2022-11-27T23:35:10.214Z,10.68
2022-11-27T23:37:38.635Z,11.75
2022-11-27T23:40:09.098Z,10.82
2022-11-27T23:42:37.729Z,11.35
2022-11-27T23:45:06.705Z,11.43
2022-11-27T23:47:36.515Z,11.23
2022-11-27T23:50:05.083Z,11.90
2022-11-27T23:52:33.610Z,11.43
2022-11-27T23:55:03.329Z,11.45
2022-11-27T23:57:32.298Z,12.10
